Time;durP1;ratioP1;P1;durP2;ratioP2;P2;SDS_P1;SDS_P2;PMS_P1;PMS_P2;Temp;Humidity;BMP_temperature;BMP_pressure;BME280_temperature;BME280_humidity;BME280_pressure;Samples;Min_cycle;Max_cycle;Signal;HPM_P1;HPM_P2
2022/07/28 00:02:04;;;;;;;3.92;1.63;;;;;;;10.02;100.00;155044.09;4991075;28;20033;-75
2022/07/28 00:04:32;;;;;;;6.38;1.92;;;;;;;9.90;100.00;155013.31;5005382;28;20034;-75
2022/07/28 00:06:57;;;;;;;8.45;1.75;;;;;;;9.81;100.00;154990.22;4994598;28;20486;-75
2022/07/28 00:09:23;;;;;;;4.45;1.45;;;;;;;9.79;100.00;154986.34;5006575;28;20096;-74
2022/07/28 00:11:49;;;;;;;4.05;1.38;;;;;;;9.69;100.00;154960.75;4976261;28;20030;-75
2022/07/28 00:14:14;;;;;;;6.28;1.40;;;;;;;9.67;100.00;154955.59;5012263;28;20053;-74
2022/07/28 00:16:40;;;;;;;7.00;1.65;;;;;;;9.64;100.00;154947.91;5005130;28;20030;-75
2022/07/28 00:19:06;;;;;;;6.85;1.80;;;;;;;9.69;100.00;154960.75;4996726;28;20029;-75
2022/07/28 00:21:32;;;;;;;10.23;1.65;;;;;;;9.64;100.00;154949.16;4972045;28;20109;-75
2022/07/28 00:23:57;;;;;;;3.10;1.27;;;;;;;9.69;100.00;154962.00;5012963;28;20197;-75
2022/07/28 00:26:23;;;;;;;6.03;1.27;;;;;;;9.58;100.00;154932.53;4985466;28;20037;-74
2022/07/28 00:28:49;;;;;;;10.10;1.33;;;;;;;9.55;100.00;154926.13;4987852;28;20038;-75
2022/07/28 00:31:14;;;;;;;5.85;1.80;;;;;;;9.49;100.00;154910.72;4976158;28;20053;-75
2022/07/28 00:33:40;;;;;;;6.70;1.67;;;;;;;9.47;100.00;154905.59;4970883;28;20041;-74
2022/07/28 00:36:09;;;;;;;11.05;1.88;;;;;;;9.48;100.00;154909.44;5008867;28;20483;-75
2022/07/28 00:38:36;;;;;;;4.50;1.55;;;;;;;9.46;100.00;154903.06;5010178;28;20061;-74
2022/07/28 00:41:11;;;;;;;9.30;1.45;;;;;;;9.48;100.00;154908.19;4999810;28;20511;-73
2022/07/28 00:43:47;;;;;;;7.78;1.98;;;;;;;9.43;100.00;154896.59;5008082;28;20569;-75
2022/07/28 00:46:16;;;;;;;5.63;1.40;;;;;;;9.41;100.00;154890.22;5003371;28;20061;-75
2022/07/28 00:48:44;;;;;;;6.93;1.67;;;;;;;9.46;100.00;154904.31;4993733;28;20041;-75
2022/07/28 00:51:10;;;;;;;6.25;1.33;;;;;;;9.43;100.00;154895.34;4999886;28;20110;-76
2022/07/28 00:53:38;;;;;;;5.80;1.55;;;;;;;9.45;100.00;154900.47;4992928;28;20037;-75
2022/07/28 00:56:04;;;;;;;5.35;1.35;;;;;;;9.49;100.00;154910.72;4997668;28;20584;-76
2022/07/28 00:58:30;;;;;;;8.15;1.80;;;;;;;9.47;100.00;154906.84;5012594;28;20038;-76
2022/07/28 01:00:56;;;;;;;6.05;1.73;;;;;;;9.45;100.00;154901.72;5009702;28;20090;-77
2022/07/28 01:03:22;;;;;;;7.68;2.00;;;;;;;9.41;100.00;154890.22;5005572;28;20038;-76
2022/07/28 01:05:57;;;;;;;5.40;1.48;;;;;;;9.42;100.00;154892.75;5000403;28;20050;-75
2022/07/28 01:08:32;;;;;;;7.75;1.75;;;;;;;9.39;100.00;154886.38;4969984;28;20155;-76
2022/07/28 01:11:08;;;;;;;5.10;1.77;;;;;;;9.39;100.00;154886.38;4988140;28;20506;-76
2022/07/28 01:13:41;;;;;;;7.78;2.03;;;;;;;9.33;100.00;154871.00;5002145;28;20511;-76
2022/07/28 01:16:07;;;;;;;6.50;1.50;;;;;;;9.31;100.00;154865.88;4970346;28;20133;-76
2022/07/28 01:18:56;;;;;;;5.07;1.50;;;;;;;9.30;100.00;154863.28;5016291;28;20046;-75
2022/07/28 01:21:32;;;;;;;7.90;1.80;;;;;;;9.30;100.00;154864.56;5007867;28;20042;-75
2022/07/28 01:24:09;;;;;;;7.22;1.70;;;;;;;9.38;100.00;154882.50;5012472;28;20922;-76
2022/07/28 01:26:52;;;;;;;3.80;1.40;;;;;;;9.38;100.00;154882.50;5009493;28;20487;-76
2022/07/28 01:29:59;;;;;;;6.40;1.60;;;;;;;9.37;100.00;154881.25;5011418;28;20037;-76
2022/07/28 01:32:30;;;;;;;5.05;1.63;;;;;;;9.41;100.00;154891.50;4986790;28;20046;-75
2022/07/28 01:35:07;;;;;;;9.07;1.92;;;;;;;9.37;100.00;154879.97;5005819;28;20502;-76
2022/07/28 01:37:39;;;;;;;9.20;1.80;;;;;;;9.31;100.00;154867.13;5000820;28;20049;-75
2022/07/28 01:40:07;;;;;;;5.47;1.60;;;;;;;9.29;100.00;154860.75;5003671;28;20116;-76
2022/07/28 01:42:42;;;;;;;4.28;1.83;;;;;;;9.25;100.00;154850.44;5005525;28;20812;-75
2022/07/28 01:45:09;;;;;;;7.25;1.92;;;;;;;9.23;100.00;154846.66;5007236;28;20053;-76
2022/07/28 01:47:36;;;;;;;7.18;1.88;;;;;;;9.23;100.00;154846.66;5006573;28;20034;-77
2022/07/28 01:50:07;;;;;;;5.90;2.08;;;;;;;9.20;100.00;154837.66;5009733;28;20742;-76
2022/07/28 01:52:36;;;;;;;5.05;1.60;;;;;;;9.27;100.00;154855.63;4988896;28;20073;-76
2022/07/28 01:55:03;;;;;;;3.70;1.73;;;;;;;9.32;100.00;154868.41;5007002;28;20062;-75
2022/07/28 01:57:31;;;;;;;9.45;2.03;;;;;;;9.38;100.00;154882.50;5005248;28;20056;-76
2022/07/28 01:59:59;;;;;;;7.22;1.75;;;;;;;9.38;100.00;154882.50;4990817;28;20045;-76
2022/07/28 02:02:28;;;;;;;9.27;1.73;;;;;;;9.32;100.00;154869.72;4993279;28;20033;-76
2022/07/28 02:04:56;;;;;;;7.13;1.92;;;;;;;9.29;100.00;154860.75;5018926;28;20025;-77
2022/07/28 02:07:23;;;;;;;6.10;2.08;;;;;;;9.27;100.00;154856.88;4987732;28;21036;-76
2022/07/28 02:09:50;;;;;;;4.70;1.98;;;;;;;9.29;100.00;154860.75;5020625;28;20041;-77
2022/07/28 02:12:17;;;;;;;4.50;2.08;;;;;;;9.26;100.00;154853.03;4999374;28;20030;-75
2022/07/28 02:14:47;;;;;;;5.53;2.20;;;;;;;9.26;100.00;154854.31;5001184;28;20555;-76
2022/07/28 02:17:17;;;;;;;5.40;2.50;;;;;;;9.24;100.00;154847.91;5007431;28;20184;-75
2022/07/28 02:19:46;;;;;;;6.47;2.25;;;;;;;9.26;100.00;154853.03;5003464;28;20034;-75
2022/07/28 02:22:13;;;;;;;8.95;2.20;;;;;;;9.24;100.00;154849.19;5003811;28;20033;-77
2022/07/28 02:24:40;;;;;;;7.80;1.85;;;;;;;9.31;100.00;154865.88;5008698;28;20052;-77
2022/07/28 02:27:18;;;;;;;10.38;2.10;;;;;;;9.34;100.00;154874.84;4996887;28;20049;-77
2022/07/28 02:29:48;;;;;;;4.85;1.85;;;;;;;9.34;100.00;154873.53;4999044;28;20041;-76
2022/07/28 02:33:01;;;;;;;5.53;2.10;;;;;;;9.30;100.00;154864.56;5014077;28;20038;-77
2022/07/28 02:35:40;;;;;;;6.05;2.63;;;;;;;9.22;100.00;154842.78;4982721;28;20045;-75
2022/07/28 02:38:10;;;;;;;4.45;2.58;;;;;;;9.16;100.00;154829.97;4992040;28;20721;-75
2022/07/28 02:40:39;;;;;;;7.63;2.28;;;;;;;9.01;100.00;154791.53;5000825;28;20773;-76
2022/07/28 02:43:09;;;;;;;6.82;2.20;;;;;;;8.95;100.00;154776.16;4990398;28;20034;-75
2022/07/28 02:45:38;;;;;;;6.60;2.40;;;;;;;8.92;100.00;154769.72;4992311;28;20072;-75
2022/07/28 02:48:06;;;;;;;7.53;2.15;;;;;;;8.89;100.00;154760.75;4982448;28;20447;-76
2022/07/28 02:50:32;;;;;;;3.95;2.10;;;;;;;8.90;100.00;154763.31;5003305;28;20030;-75
2022/07/28 02:53:01;;;;;;;5.65;2.25;;;;;;;8.91;100.00;154765.88;5002992;28;20041;-76
2022/07/28 02:55:28;;;;;;;8.13;1.90;;;;;;;8.92;100.00;154768.44;4989854;28;20061;-76
2022/07/28 02:57:57;;;;;;;5.38;2.28;;;;;;;8.94;100.00;154773.56;5006521;28;20431;-75
2022/07/28 03:00:24;;;;;;;6.88;2.50;;;;;;;8.93;100.00;154772.28;5007934;28;20053;-76
2022/07/28 03:02:52;;;;;;;10.10;2.30;;;;;;;8.89;100.00;154762.06;5007864;28;20479;-75
2022/07/28 03:05:18;;;;;;;5.00;2.30;;;;;;;8.91;100.00;154765.88;5005903;28;20041;-74
2022/07/28 03:07:43;;;;;;;7.07;2.60;;;;;;;8.99;100.00;154786.41;5009736;28;20525;-75
2022/07/28 03:10:21;;;;;;;4.63;2.60;;;;;;;9.15;100.00;154826.09;5014379;28;20088;-76
2022/07/28 03:12:46;;;;;;;10.07;2.97;;;;;;;9.28;100.00;154859.44;4993778;28;20095;-76
2022/07/28 03:15:12;;;;;;;10.00;2.75;;;;;;;9.41;100.00;154890.22;5008634;28;20045;-75
2022/07/28 03:17:38;;;;;;;8.43;2.83;;;;;;;9.40;100.00;154887.63;5001298;28;20383;-75
2022/07/28 03:20:04;;;;;;;6.13;2.75;;;;;;;9.42;100.00;154894.06;4996194;28;20052;-75
2022/07/28 03:22:30;;;;;;;14.15;3.40;;;;;;;9.47;100.00;154906.84;4996102;28;20117;-75
2022/07/28 03:24:56;;;;;;;6.53;2.78;;;;;;;9.49;100.00;154910.72;4974995;28;20124;-76
2022/07/28 03:27:31;;;;;;;5.00;2.88;;;;;;;9.46;100.00;154903.06;5000702;28;20038;-75
2022/07/28 03:30:05;;;;;;;9.27;3.00;;;;;;;9.39;100.00;154885.09;5019055;28;20046;-74
2022/07/28 03:32:33;;;;;;;6.65;2.60;;;;;;;9.37;100.00;154879.97;5004253;28;20730;-74
2022/07/28 03:35:00;;;;;;;6.03;2.47;;;;;;;9.36;100.00;154878.66;5022193;28;20044;-75
2022/07/28 03:37:32;;;;;;;4.22;2.45;;;;;;;9.42;100.00;154894.06;4994595;28;20034;-75
2022/07/28 03:39:59;;;;;;;8.50;2.85;;;;;;;9.52;100.00;154918.41;5023512;28;20030;-74
2022/07/28 03:42:27;;;;;;;6.15;2.88;;;;;;;9.57;100.00;154931.25;5010637;28;20034;-75
2022/07/28 03:44:53;;;;;;;6.30;2.92;;;;;;;9.64;100.00;154947.91;5016996;28;20052;-75
2022/07/28 03:47:23;;;;;;;5.35;2.72;;;;;;;9.64;100.00;154947.91;5010807;28;20049;-75
2022/07/28 03:49:49;;;;;;;6.15;2.58;;;;;;;9.66;100.00;154953.03;5007458;28;20053;-76
2022/07/28 03:52:15;;;;;;;5.63;2.30;;;;;;;9.70;100.00;154963.28;5004443;28;20098;-75
2022/07/28 03:54:41;;;;;;;4.70;2.33;;;;;;;9.72;100.00;154968.44;5010216;28;20053;-76
2022/07/28 03:57:07;;;;;;;8.35;2.90;;;;;;;9.71;100.00;154965.84;5007316;28;20403;-74
2022/07/28 03:59:32;;;;;;;5.00;2.85;;;;;;;9.78;100.00;154983.81;5004793;28;20117;-75
2022/07/28 04:01:58;;;;;;;7.07;2.60;;;;;;;9.79;100.00;154986.34;5004411;28;20081;-74
2022/07/28 04:04:23;;;;;;;6.03;3.08;;;;;;;9.84;100.00;154997.94;5014885;28;20044;-75
2022/07/28 04:06:49;;;;;;;5.38;2.22;;;;;;;9.92;100.00;155018.44;4998456;28;20473;-75
2022/07/28 04:09:14;;;;;;;11.63;2.80;;;;;;;9.98;100.00;155032.53;5014745;28;20053;-76
2022/07/28 04:11:41;;;;;;;7.90;2.30;;;;;;;10.05;100.00;155051.75;4997013;28;20511;-76
2022/07/28 04:14:06;;;;;;;9.15;3.05;;;;;;;10.11;100.00;155065.88;5007359;28;20034;-75
2022/07/28 04:16:32;;;;;;;6.05;2.70;;;;;;;10.14;100.00;155073.59;5008880;28;20034;-76
2022/07/28 04:18:58;;;;;;;6.53;2.45;;;;;;;10.22;100.00;155092.81;4999171;28;20132;-75
2022/07/28 04:21:24;;;;;;;9.30;2.70;;;;;;;10.32;100.00;155119.81;4995856;28;20082;-75
2022/07/28 04:23:50;;;;;;;4.63;2.60;;;;;;;10.42;100.00;155144.19;4998247;28;20036;-74
2022/07/28 04:26:16;;;;;;;7.50;2.97;;;;;;;10.50;100.00;155163.44;5007380;28;20034;-75
2022/07/28 04:28:43;;;;;;;6.95;2.50;;;;;;;10.55;100.00;155176.28;4991388;28;20498;-75
2022/07/28 04:31:09;;;;;;;7.38;2.85;;;;;;;10.53;100.00;155171.13;5006714;28;20049;-77
2022/07/28 04:33:34;;;;;;;8.35;2.33;;;;;;;10.57;100.00;155181.41;4997939;28;20030;-76
2022/07/28 04:36:00;;;;;;;8.40;2.60;;;;;;;10.63;100.00;155195.50;5010646;28;20038;-75
2022/07/28 04:38:26;;;;;;;4.53;2.25;;;;;;;10.69;100.00;155212.16;5004337;28;20038;-75
2022/07/28 04:40:52;;;;;;;7.43;2.40;;;;;;;10.77;100.00;155230.13;5040652;22;20053;-72
2022/07/28 04:43:18;;;;;;;7.32;2.30;;;;;;;10.80;100.00;155239.13;5004849;28;20076;-71
2022/07/28 04:45:45;;;;;;;5.22;2.30;;;;;;;10.83;100.00;155246.84;5014686;28;20127;-72
2022/07/28 04:48:11;;;;;;;5.15;2.20;;;;;;;10.86;100.00;155254.50;5005151;28;20034;-71
2022/07/28 04:50:39;;;;;;;4.00;2.10;;;;;;;10.85;100.00;155251.97;5011654;28;20030;-71
2022/07/28 04:53:05;;;;;;;7.25;2.50;;;;;;;10.93;100.00;155269.94;5001790;28;20026;-72
2022/07/28 04:55:31;;;;;;;5.78;2.17;;;;;;;10.91;100.00;155267.34;4983362;28;20041;-71
2022/07/28 04:57:57;;;;;;;7.47;2.53;;;;;;;10.92;100.00;155268.63;5008647;28;20038;-70
2022/07/28 05:00:23;;;;;;;8.43;2.60;;;;;;;10.91;100.00;155266.06;4988118;28;20038;-72
2022/07/28 05:02:50;;;;;;;6.50;2.22;;;;;;;11.01;100.00;155291.72;4997568;28;20104;-71
2022/07/28 05:05:15;;;;;;;7.00;2.47;;;;;;;11.10;100.00;155314.81;5022003;28;20099;-72
2022/07/28 05:07:41;;;;;;;7.95;2.47;;;;;;;11.19;100.00;155335.34;5012710;28;20144;-73
2022/07/28 05:10:10;;;;;;;6.35;2.15;;;;;;;11.26;100.00;155353.31;5007055;28;20036;-71
2022/07/28 05:12:35;;;;;;;4.90;2.05;;;;;;;11.46;100.00;155404.66;4989458;28;20034;-71
2022/07/28 05:15:01;;;;;;;6.90;2.22;;;;;;;11.55;100.00;155425.25;5005921;28;20039;-72
2022/07/28 05:17:27;;;;;;;4.63;2.22;;;;;;;11.66;100.00;155453.47;5005859;28;20065;-71
2022/07/28 05:19:53;;;;;;;5.03;2.03;;;;;;;11.74;100.00;155474.00;5003413;28;20042;-70
2022/07/28 05:22:18;;;;;;;5.88;2.08;;;;;;;11.83;100.00;155497.13;5004608;28;20041;-72
2022/07/28 05:24:44;;;;;;;3.80;2.30;;;;;;;11.84;100.00;155499.66;5008167;28;20030;-73
2022/07/28 05:27:12;;;;;;;4.93;2.00;;;;;;;11.95;100.00;155525.41;5012773;28;20085;-71
2022/07/28 05:29:40;;;;;;;8.75;2.70;;;;;;;12.02;100.00;155543.41;4985438;28;20025;-70
2022/07/28 05:32:08;;;;;;;6.45;2.20;;;;;;;11.99;100.00;155536.94;4986977;28;20053;-71
2022/07/28 05:34:34;;;;;;;4.85;2.03;;;;;;;12.03;100.00;155547.22;4987690;28;20042;-72
2022/07/28 05:37:01;;;;;;;4.88;2.13;;;;;;;12.08;100.00;155560.06;4999424;28;20045;-72
2022/07/28 05:39:31;;;;;;;5.38;2.10;;;;;;;12.16;100.00;155578.06;5005025;28;20064;-71
2022/07/28 05:41:58;;;;;;;4.07;1.98;;;;;;;12.17;100.00;155581.91;5002822;28;20042;-71
2022/07/28 05:44:24;;;;;;;8.65;2.35;;;;;;;12.24;100.00;155598.59;5011186;28;20087;-71
2022/07/28 05:46:50;;;;;;;7.18;2.15;;;;;;;12.29;100.00;155611.44;5010022;28;20433;-71
2022/07/28 05:49:16;;;;;;;7.38;2.20;;;;;;;12.36;100.00;155628.16;5005936;28;20042;-72
2022/07/28 05:51:41;;;;;;;4.97;2.13;;;;;;;12.40;100.00;155638.44;5014509;28;20156;-72
2022/07/28 05:54:07;;;;;;;6.57;1.90;;;;;;;12.52;100.00;155667.97;4991457;28;20042;-71
2022/07/28 05:56:32;;;;;;;7.65;2.40;;;;;;;12.61;100.00;155691.09;5008079;28;20072;-71
2022/07/28 05:58:58;;;;;;;3.90;1.92;;;;;;;12.70;100.00;155712.94;4997093;28;20038;-71
2022/07/28 06:01:24;;;;;;;6.28;2.17;;;;;;;12.78;100.00;155733.47;5001931;28;20037;-72
2022/07/28 06:03:52;;;;;;;6.82;2.00;;;;;;;12.92;100.00;155768.16;5012577;28;20120;-72
2022/07/28 06:06:18;;;;;;;6.53;2.20;;;;;;;13.06;100.00;155804.16;5002688;28;20042;-72
2022/07/28 06:08:45;;;;;;;6.28;2.30;;;;;;;13.19;100.00;155837.56;4976071;28;20048;-72
2022/07/28 06:11:12;;;;;;;5.32;2.13;;;;;;;13.47;100.00;155907.00;5001706;28;20040;-71
2022/07/28 06:13:38;;;;;;;4.93;1.90;;;;;;;13.68;100.00;155959.72;5001456;28;20088;-71
2022/07/28 06:16:07;;;;;;;7.07;2.40;;;;;;;13.75;100.00;155976.38;5005942;28;20040;-73
2022/07/28 06:18:33;;;;;;;9.93;2.13;;;;;;;13.90;100.00;156015.00;5006309;28;20110;-71
2022/07/28 06:20:58;;;;;;;7.40;2.33;;;;;;;13.92;100.00;156018.81;4999475;28;20100;-71
2022/07/28 06:23:24;;;;;;;6.03;2.13;;;;;;;13.87;100.00;156007.25;5001916;28;20042;-73
2022/07/28 06:25:50;;;;;;;3.38;1.70;;;;;;;13.80;100.00;155990.53;4998123;28;20034;-72
2022/07/28 06:28:17;;;;;;;6.35;1.70;;;;;;;13.79;100.00;155987.97;4990734;28;20038;-73
2022/07/28 06:30:45;;;;;;;6.20;2.10;;;;;;;13.85;100.00;156000.84;5008367;28;20112;-72
2022/07/28 06:33:10;;;;;;;7.88;1.98;;;;;;;13.87;100.00;156007.25;5008850;28;20090;-73
2022/07/28 06:35:36;;;;;;;5.32;1.90;;;;;;;14.09;100.00;156062.56;5006790;28;20077;-71
2022/07/28 06:38:02;;;;;;;4.32;1.70;;;;;;;14.03;100.00;156047.09;4997632;28;20033;-72
2022/07/28 06:40:27;;;;;;;4.78;1.65;;;;;;;14.17;100.00;156083.13;4994917;28;20038;-71
2022/07/28 06:42:53;;;;;;;6.63;1.70;;;;;;;14.26;100.00;156103.66;4980769;28;20035;-74
2022/07/28 06:45:19;;;;;;;7.57;1.58;;;;;;;14.44;100.00;156149.97;5002010;28;20113;-71
2022/07/28 06:47:45;;;;;;;8.82;1.73;;;;;;;14.58;100.00;156186.06;4984367;28;20045;-71
2022/07/28 06:50:11;;;;;;;7.43;1.50;;;;;;;14.68;100.00;156210.47;5005071;28;20403;-71
2022/07/28 06:52:37;;;;;;;12.27;1.77;;;;;;;14.73;100.00;156223.34;5005557;28;20403;-72
2022/07/28 06:55:04;;;;;;;7.20;1.63;;;;;;;14.81;100.00;156241.38;4997222;28;20038;-71
2022/07/28 06:57:32;;;;;;;4.75;1.50;;;;;;;14.84;98.06;156250.34;4983374;28;20530;-74
2022/07/28 06:59:59;;;;;;;8.00;1.48;;;;;;;14.78;94.99;156236.19;5009940;28;20041;-71
2022/07/28 07:02:24;;;;;;;5.90;1.23;;;;;;;14.75;94.71;156228.50;5006706;28;20030;-72
2022/07/28 07:04:50;;;;;;;8.20;1.30;;;;;;;14.74;97.43;156225.91;4997628;28;20043;-72
2022/07/28 07:07:16;;;;;;;8.50;1.42;;;;;;;14.85;98.44;156252.94;5006927;28;20044;-70
2022/07/28 07:09:42;;;;;;;9.10;1.45;;;;;;;14.89;98.23;156263.22;5010794;28;20072;-72
2022/07/28 07:12:07;;;;;;;8.85;1.42;;;;;;;14.96;98.91;156281.22;5002847;28;20059;-72
2022/07/28 07:14:33;;;;;;;4.68;1.13;;;;;;;14.91;95.19;156268.34;5004810;28;20046;-72
2022/07/28 07:16:59;;;;;;;6.60;1.38;;;;;;;14.90;95.41;156264.47;5011225;28;20045;-73
2022/07/28 07:19:25;;;;;;;5.25;1.30;;;;;;;14.85;95.44;156252.94;5002474;28;20108;-72
2022/07/28 07:21:50;;;;;;;8.07;1.67;;;;;;;14.90;95.58;156264.47;5011628;28;20176;-71
2022/07/28 07:24:16;;;;;;;6.78;1.70;;;;;;;14.85;91.03;156251.66;5008209;28;20105;-72
2022/07/28 07:26:44;;;;;;;4.80;1.15;;;;;;;14.83;92.30;156246.50;5005528;28;20034;-72
2022/07/28 07:29:10;;;;;;;7.97;1.13;;;;;;;14.79;92.53;156237.50;4996986;28;20110;-74
2022/07/28 07:31:37;;;;;;;10.23;1.45;;;;;;;14.81;92.53;156241.38;5002884;28;20125;-71
2022/07/28 07:34:04;;;;;;;7.05;1.58;;;;;;;14.93;90.98;156272.22;5003484;28;20103;-72
2022/07/28 07:36:30;;;;;;;6.38;1.63;;;;;;;14.98;92.33;156286.38;5000634;28;20048;-72
2022/07/28 07:38:55;;;;;;;5.28;1.33;;;;;;;14.99;88.67;156287.63;5005473;28;20021;-72
2022/07/28 07:41:21;;;;;;;6.32;1.45;;;;;;;15.01;90.45;156292.78;4993962;28;21068;-71
2022/07/28 07:43:47;;;;;;;6.53;1.52;;;;;;;15.05;90.04;156303.13;5008753;28;20398;-72
2022/07/28 07:46:14;;;;;;;5.18;1.30;;;;;;;14.98;90.35;156286.38;4992777;28;20494;-71
2022/07/28 07:48:40;;;;;;;4.60;1.20;;;;;;;15.11;89.96;156318.53;5009115;28;20867;-71
2022/07/28 07:51:06;;;;;;;4.05;1.50;;;;;;;15.27;90.68;156358.41;5003450;28;20144;-71
2022/07/28 07:53:32;;;;;;;6.63;1.60;;;;;;;15.37;88.92;156384.16;4983581;28;20487;-71
2022/07/28 07:55:57;;;;;;;6.07;1.67;;;;;;;15.33;88.08;156373.88;5003775;28;20044;-72
2022/07/28 07:58:23;;;;;;;5.53;1.65;;;;;;;15.27;87.04;156357.13;5006280;28;20037;-71
2022/07/28 08:00:49;;;;;;;9.95;1.77;;;;;;;15.37;93.36;156382.88;4996306;28;20487;-72
2022/07/28 08:03:16;;;;;;;3.90;1.40;;;;;;;15.58;89.14;156435.63;5001833;28;20058;-73
2022/07/28 08:05:42;;;;;;;6.28;1.30;;;;;;;15.72;85.25;156470.38;5001927;28;20039;-73
2022/07/28 08:08:08;;;;;;;5.35;1.40;;;;;;;15.94;86.09;156525.78;5005890;28;20036;-72
2022/07/28 08:10:36;;;;;;;6.55;1.65;;;;;;;16.05;86.50;156552.78;5010752;28;20557;-72
2022/07/28 08:13:03;;;;;;;9.40;1.67;;;;;;;16.08;87.06;156561.78;5005794;28;20390;-72
2022/07/28 08:15:29;;;;;;;9.27;1.40;;;;;;;16.08;83.17;156560.50;5007364;28;20120;-72
2022/07/28 08:17:55;;;;;;;4.65;1.25;;;;;;;16.09;80.06;156563.09;5004542;28;20029;-71
2022/07/28 08:20:21;;;;;;;5.35;1.25;;;;;;;16.17;77.38;156582.41;5003948;28;20080;-73
2022/07/28 08:22:51;;;;;;;3.70;1.27;;;;;;;16.25;76.38;156603.00;4992194;28;20470;-72
2022/07/28 08:25:18;;;;;;;6.47;1.63;;;;;;;16.37;76.84;156633.91;5012380;28;20038;-72
2022/07/28 08:27:43;;;;;;;6.43;1.40;;;;;;;16.51;78.53;156668.66;5008109;28;20076;-71
2022/07/28 08:30:10;;;;;;;9.95;1.75;;;;;;;16.35;78.29;156630.03;4988236;28;20065;-72
2022/07/28 08:32:36;;;;;;;7.22;1.48;;;;;;;16.22;79.78;156595.25;4991270;28;20037;-72
2022/07/28 08:35:03;;;;;;;5.55;1.83;;;;;;;16.09;82.99;156564.38;5005402;28;20041;-73
2022/07/28 08:37:29;;;;;;;11.15;1.65;;;;;;;15.94;86.32;156527.06;5009650;28;20045;-73
2022/07/28 08:39:54;;;;;;;4.90;1.42;;;;;;;15.86;90.10;156505.16;5004908;28;20033;-72
2022/07/28 08:42:34;;;;;;;9.32;1.70;;;;;;;15.82;91.18;156496.13;5007590;28;20097;-72
2022/07/28 08:45:07;;;;;;;4.95;1.23;;;;;;;15.86;86.28;156505.16;4996877;28;21283;-73
2022/07/28 08:47:34;;;;;;;3.92;1.02;;;;;;;16.09;86.07;156564.38;5001208;28;20038;-72
2022/07/28 08:50:00;;;;;;;4.57;1.25;;;;;;;15.98;84.44;156534.78;4999693;28;20127;-71
2022/07/28 08:52:28;;;;;;;5.60;1.00;;;;;;;15.84;81.79;156500.00;5005132;28;20037;-72
2022/07/28 08:54:55;;;;;;;3.90;1.67;;;;;;;15.76;84.31;156480.72;5003681;28;20554;-72
2022/07/28 08:57:33;;;;;;;7.82;1.23;;;;;;;15.83;84.45;156498.72;5001729;28;20116;-72
2022/07/28 08:59:58;;;;;;;4.40;1.20;;;;;;;16.07;84.28;156557.97;5004566;28;20402;-73
2022/07/28 09:02:25;;;;;;;5.97;1.23;;;;;;;16.19;80.10;156588.84;5006465;28;20057;-72
2022/07/28 09:04:55;;;;;;;2.35;1.00;;;;;;;16.36;82.25;156631.31;5010790;28;20030;-72
2022/07/28 09:07:22;;;;;;;9.90;1.08;;;;;;;16.48;79.75;156660.91;5003379;28;20512;-70
2022/07/28 09:09:49;;;;;;;6.60;1.15;;;;;;;16.64;78.47;156702.13;5005853;28;20113;-72
2022/07/28 09:12:16;;;;;;;8.10;1.48;;;;;;;16.86;78.62;156757.56;5010823;28;20037;-72
2022/07/28 09:14:41;;;;;;;7.72;1.23;;;;;;;17.00;77.25;156791.06;5006135;28;20037;-71
2022/07/28 09:17:07;;;;;;;3.20;1.10;;;;;;;17.25;79.68;156855.47;5004656;28;20081;-71
2022/07/28 09:19:33;;;;;;;6.68;1.48;;;;;;;17.29;77.38;156865.75;5001053;28;20096;-74
2022/07/28 09:21:59;;;;;;;3.25;1.20;;;;;;;17.26;75.14;156858.03;5011607;28;20075;-74
2022/07/28 09:24:37;;;;;;;6.38;1.40;;;;;;;17.03;75.98;156800.06;5003316;28;20046;-74
2022/07/28 09:27:09;;;;;;;4.72;1.55;;;;;;;17.06;75.93;156807.78;4996073;28;20742;-71
2022/07/28 09:29:36;;;;;;;4.53;1.35;;;;;;;17.18;76.47;156837.44;5006703;28;20491;-71
2022/07/28 09:32:03;;;;;;;6.68;1.20;;;;;;;17.00;75.04;156791.06;5001351;28;20461;-71
2022/07/28 09:34:41;;;;;;;8.15;2.05;;;;;;;16.90;76.48;156767.88;5011679;28;20046;-72
2022/07/28 09:37:18;;;;;;;5.47;1.63;;;;;;;16.81;77.31;156743.34;5023325;28;20514;-73
2022/07/28 09:39:45;;;;;;;5.07;1.55;;;;;;;16.80;77.72;156742.09;5006355;28;20209;-72
2022/07/28 09:42:11;;;;;;;6.70;1.30;;;;;;;16.85;76.92;156754.97;5013060;28;20044;-72
2022/07/28 09:44:37;;;;;;;4.80;1.13;;;;;;;16.95;77.16;156778.16;5011419;28;20025;-73
2022/07/28 09:47:23;;;;;;;6.85;1.65;;;;;;;17.04;78.47;156801.34;5007997;28;20034;-71
2022/07/28 09:49:49;;;;;;;3.65;1.10;;;;;;;17.11;77.34;156819.38;5001742;28;20454;-71
2022/07/28 09:52:32;;;;;;;4.30;1.48;;;;;;;17.20;77.56;156841.31;5025829;28;20038;-73
2022/07/28 09:54:59;;;;;;;5.78;1.17;;;;;;;17.26;74.43;156858.03;5003697;28;20068;-71
2022/07/28 09:57:27;;;;;;;8.00;1.25;;;;;;;17.32;75.64;156873.47;5008980;28;20034;-72
2022/07/28 09:59:54;;;;;;;4.13;1.17;;;;;;;17.47;73.04;156909.56;5007168;28;20048;-71
2022/07/28 10:02:24;;;;;;;5.82;1.25;;;;;;;17.85;71.38;157006.22;5002779;28;20451;-73
2022/07/28 10:04:54;;;;;;;4.50;1.42;;;;;;;18.56;69.67;157184.09;5001931;28;20466;-73
2022/07/28 10:07:20;;;;;;;6.80;1.30;;;;;;;18.52;67.22;157173.78;4983817;28;20034;-73
2022/07/28 10:10:00;;;;;;;8.75;1.52;;;;;;;18.55;67.75;157180.22;5007878;28;20100;-72
2022/07/28 10:12:30;;;;;;;6.28;1.42;;;;;;;18.20;67.32;157092.59;4988956;28;20033;-73
2022/07/28 10:14:59;;;;;;;4.03;1.17;;;;;;;17.88;69.66;157012.69;5009757;28;20414;-72
2022/07/28 10:17:30;;;;;;;4.47;1.38;;;;;;;17.92;72.74;157023.00;4988044;28;20046;-72
2022/07/28 10:20:06;;;;;;;5.45;1.30;;;;;;;18.00;74.35;157043.59;5005121;28;20487;-72
2022/07/28 10:22:33;;;;;;;5.03;1.38;;;;;;;18.19;74.05;157090.00;5011896;28;20030;-73
2022/07/28 10:25:01;;;;;;;7.50;1.27;;;;;;;18.26;70.66;157109.31;5015324;28;20433;-72
2022/07/28 10:27:27;;;;;;;5.13;1.63;;;;;;;18.19;70.64;157091.28;4980074;28;20061;-72
2022/07/28 10:29:57;;;;;;;4.15;1.35;;;;;;;18.12;67.33;157071.94;5000438;28;20449;-72
2022/07/28 10:32:23;;;;;;;4.70;0.82;;;;;;;17.98;68.48;157037.16;5003366;28;20130;-72
2022/07/28 10:35:15;;;;;;;2.53;0.98;;;;;;;18.08;76.33;157064.25;4982691;28;20712;-73
2022/07/28 10:37:47;;;;;;;7.28;1.30;;;;;;;18.15;69.85;157079.69;4999081;28;20491;-70
2022/07/28 10:40:26;;;;;;;5.82;1.42;;;;;;;18.15;66.50;157080.97;5003652;28;20052;-72
2022/07/28 10:42:52;;;;;;;4.70;1.00;;;;;;;18.11;67.05;157070.66;4995956;28;20076;-75
2022/07/28 10:45:18;;;;;;;4.32;1.10;;;;;;;18.22;65.99;157099.03;4999046;28;20113;-76
2022/07/28 10:47:44;;;;;;;3.75;1.20;;;;;;;18.27;68.16;157111.91;4983454;28;20046;-76
2022/07/28 10:50:10;;;;;;;7.13;1.50;;;;;;;18.36;71.76;157133.81;5002954;28;20548;-76
2022/07/28 10:52:37;;;;;;;6.03;1.10;;;;;;;18.64;70.40;157203.41;4989720;28;20046;-75
2022/07/28 10:55:25;;;;;;;6.47;1.30;;;;;;;19.03;68.52;157302.75;4993774;28;20062;-75
2022/07/28 10:58:11;;;;;;;2.20;0.90;;;;;;;19.28;63.89;157364.63;4991479;28;20434;-77
2022/07/28 11:00:53;;;;;;;3.75;0.80;;;;;;;19.30;65.20;157369.78;4974034;28;20080;-74
2022/07/28 11:03:42;;;;;;;3.38;0.98;;;;;;;19.16;63.73;157333.72;4999294;28;20109;-75
2022/07/28 11:06:35;;;;;;;2.35;1.00;;;;;;;19.11;63.46;157322.09;5003156;28;20603;-76
2022/07/28 11:09:16;;;;;;;8.02;1.02;;;;;;;19.03;61.39;157301.47;5005373;28;20037;-75
2022/07/28 11:11:52;;;;;;;7.75;0.90;;;;;;;19.02;61.36;157300.19;5005911;28;20052;-76
2022/07/28 11:14:24;;;;;;;6.07;1.20;;;;;;;19.05;61.25;157306.63;4985039;28;20081;-76
2022/07/28 11:17:11;;;;;;;3.08;0.90;;;;;;;19.43;61.65;157403.31;4972633;28;20699;-75
2022/07/28 11:19:43;;;;;;;4.20;1.35;;;;;;;19.69;62.15;157466.53;5009513;28;20437;-76
2022/07/28 11:22:15;;;;;;;3.20;0.90;;;;;;;19.56;60.54;157435.56;4990109;28;20372;-75
2022/07/28 11:25:03;;;;;;;3.47;1.00;;;;;;;19.44;60.90;157405.91;4994359;28;20125;-76
2022/07/28 11:27:38;;;;;;;3.33;0.90;;;;;;;19.84;61.78;157506.56;4984358;28;20080;-75
2022/07/28 11:30:06;;;;;;;4.57;1.10;;;;;;;19.73;58.84;157478.19;4988564;28;20578;-75